sensor_id;sensor_type;location;lat;lon;timestamp;P1;durP1;ratioP1;P2;durP2;ratioP2
14205;SDS011;7186;48.800;9.216;2023-05-07T00:01:28;8.07;;;5.70;;
14205;SDS011;7186;48.800;9.216;2023-05-07T00:03:53;7.20;;;5.43;;
14205;SDS011;7186;48.800;9.216;2023-05-07T00:06:19;8.63;;;5.33;;
14205;SDS011;7186;48.800;9.216;2023-05-07T00:08:44;8.80;;;5.87;;
14205;SDS011;7186;48.800;9.216;2023-05-07T00:11:09;7.93;;;5.50;;
14205;SDS011;7186;48.800;9.216;2023-05-07T00:13:35;8.40;;;4.90;;
14205;SDS011;7186;48.800;9.216;2023-05-07T00:16:03;6.63;;;5.10;;
14205;SDS011;7186;48.800;9.216;2023-05-07T00:18:28;10.37;;;5.53;;
14205;SDS011;7186;48.800;9.216;2023-05-07T00:20:54;7.57;;;5.70;;
14205;SDS011;7186;48.800;9.216;2023-05-07T00:23:19;8.20;;;5.43;;
14205;SDS011;7186;48.800;9.216;2023-05-07T00:25:44;5.87;;;5.23;;
14205;SDS011;7186;48.800;9.216;2023-05-07T00:28:09;9.83;;;6.13;;
14205;SDS011;7186;48.800;9.216;2023-05-07T00:30:35;7.33;;;5.17;;
14205;SDS011;7186;48.800;9.216;2023-05-07T00:33:00;7.90;;;5.43;;
14205;SDS011;7186;48.800;9.216;2023-05-07T00:35:25;7.00;;;5.43;;
14205;SDS011;7186;48.800;9.216;2023-05-07T00:37:50;9.23;;;5.47;;
14205;SDS011;7186;48.800;9.216;2023-05-07T00:40:16;7.43;;;5.30;;
14205;SDS011;7186;48.800;9.216;2023-05-07T00:42:41;6.87;;;5.37;;
14205;SDS011;7186;48.800;9.216;2023-05-07T00:45:06;9.83;;;5.80;;
14205;SDS011;7186;48.800;9.216;2023-05-07T00:47:34;10.77;;;5.80;;
14205;SDS011;7186;48.800;9.216;2023-05-07T00:49:59;12.27;;;6.10;;
14205;SDS011;7186;48.800;9.216;2023-05-07T00:52:25;8.17;;;5.93;;
14205;SDS011;7186;48.800;9.216;2023-05-07T00:54:50;7.50;;;5.60;;
14205;SDS011;7186;48.800;9.216;2023-05-07T00:57:16;7.47;;;5.70;;
14205;SDS011;7186;48.800;9.216;2023-05-07T00:59:41;7.80;;;5.10;;
14205;SDS011;7186;48.800;9.216;2023-05-07T01:02:07;8.93;;;5.47;;
14205;SDS011;7186;48.800;9.216;2023-05-07T01:04:32;5.90;;;5.03;;
14205;SDS011;7186;48.800;9.216;2023-05-07T01:06:57;6.27;;;4.90;;
14205;SDS011;7186;48.800;9.216;2023-05-07T01:09:23;6.17;;;5.07;;
14205;SDS011;7186;48.800;9.216;2023-05-07T01:11:49;7.83;;;5.23;;
14205;SDS011;7186;48.800;9.216;2023-05-07T01:14:15;9.97;;;5.50;;
14205;SDS011;7186;48.800;9.216;2023-05-07T01:16:40;6.97;;;5.43;;
14205;SDS011;7186;48.800;9.216;2023-05-07T01:19:07;6.47;;;4.87;;
14205;SDS011;7186;48.800;9.216;2023-05-07T01:21:33;7.27;;;5.30;;
14205;SDS011;7186;48.800;9.216;2023-05-07T01:23:59;5.10;;;4.43;;
14205;SDS011;7186;48.800;9.216;2023-05-07T01:26:25;9.20;;;5.47;;
14205;SDS011;7186;48.800;9.216;2023-05-07T01:28:50;9.30;;;4.60;;
14205;SDS011;7186;48.800;9.216;2023-05-07T01:31:15;7.23;;;5.40;;
14205;SDS011;7186;48.800;9.216;2023-05-07T01:33:41;9.37;;;5.77;;
14205;SDS011;7186;48.800;9.216;2023-05-07T01:36:08;10.33;;;5.20;;
14205;SDS011;7186;48.800;9.216;2023-05-07T01:38:36;7.07;;;5.40;;
14205;SDS011;7186;48.800;9.216;2023-05-07T01:41:01;8.13;;;5.10;;
14205;SDS011;7186;48.800;9.216;2023-05-07T01:43:27;6.20;;;4.80;;
14205;SDS011;7186;48.800;9.216;2023-05-07T01:45:53;7.67;;;5.13;;
14205;SDS011;7186;48.800;9.216;2023-05-07T01:48:18;6.33;;;5.10;;
14205;SDS011;7186;48.800;9.216;2023-05-07T01:50:44;8.03;;;5.50;;
14205;SDS011;7186;48.800;9.216;2023-05-07T01:53:09;6.10;;;4.77;;
14205;SDS011;7186;48.800;9.216;2023-05-07T01:55:34;8.27;;;5.60;;
14205;SDS011;7186;48.800;9.216;2023-05-07T01:58:01;4.83;;;4.43;;
14205;SDS011;7186;48.800;9.216;2023-05-07T02:00:26;6.97;;;5.23;;
14205;SDS011;7186;48.800;9.216;2023-05-07T02:02:52;7.73;;;4.93;;
14205;SDS011;7186;48.800;9.216;2023-05-07T02:05:18;7.13;;;5.00;;
14205;SDS011;7186;48.800;9.216;2023-05-07T02:07:43;5.73;;;4.90;;
14205;SDS011;7186;48.800;9.216;2023-05-07T02:10:08;8.13;;;5.13;;
14205;SDS011;7186;48.800;9.216;2023-05-07T02:12:33;6.83;;;4.83;;
14205;SDS011;7186;48.800;9.216;2023-05-07T02:14:59;6.40;;;4.90;;
14205;SDS011;7186;48.800;9.216;2023-05-07T02:17:24;7.97;;;4.80;;
14205;SDS011;7186;48.800;9.216;2023-05-07T02:19:50;7.13;;;4.90;;
14205;SDS011;7186;48.800;9.216;2023-05-07T02:22:15;9.73;;;5.10;;
14205;SDS011;7186;48.800;9.216;2023-05-07T02:24:40;6.17;;;4.80;;
14205;SDS011;7186;48.800;9.216;2023-05-07T02:27:06;7.40;;;4.60;;
14205;SDS011;7186;48.800;9.216;2023-05-07T02:29:31;11.03;;;5.33;;
14205;SDS011;7186;48.800;9.216;2023-05-07T02:31:56;7.03;;;4.67;;
14205;SDS011;7186;48.800;9.216;2023-05-07T02:34:21;9.53;;;5.17;;
14205;SDS011;7186;48.800;9.216;2023-05-07T02:36:47;7.80;;;4.77;;
14205;SDS011;7186;48.800;9.216;2023-05-07T02:39:12;7.97;;;5.20;;
14205;SDS011;7186;48.800;9.216;2023-05-07T02:41:38;7.50;;;5.03;;
14205;SDS011;7186;48.800;9.216;2023-05-07T02:44:03;5.53;;;4.90;;
14205;SDS011;7186;48.800;9.216;2023-05-07T02:46:28;7.53;;;5.20;;
14205;SDS011;7186;48.800;9.216;2023-05-07T02:48:53;6.70;;;5.23;;
14205;SDS011;7186;48.800;9.216;2023-05-07T02:51:19;8.90;;;5.20;;
14205;SDS011;7186;48.800;9.216;2023-05-07T02:53:45;8.40;;;5.30;;
14205;SDS011;7186;48.800;9.216;2023-05-07T02:56:11;6.40;;;5.10;;
14205;SDS011;7186;48.800;9.216;2023-05-07T02:58:36;7.30;;;5.00;;
14205;SDS011;7186;48.800;9.216;2023-05-07T03:01:01;8.10;;;5.70;;
14205;SDS011;7186;48.800;9.216;2023-05-07T03:03:26;6.90;;;5.40;;
14205;SDS011;7186;48.800;9.216;2023-05-07T03:05:51;6.30;;;5.00;;
14205;SDS011;7186;48.800;9.216;2023-05-07T03:08:17;8.53;;;5.27;;
14205;SDS011;7186;48.800;9.216;2023-05-07T03:10:42;7.30;;;5.10;;
14205;SDS011;7186;48.800;9.216;2023-05-07T03:13:07;9.20;;;5.00;;
14205;SDS011;7186;48.800;9.216;2023-05-07T03:15:32;7.20;;;5.10;;
14205;SDS011;7186;48.800;9.216;2023-05-07T03:17:58;10.30;;;5.30;;
14205;SDS011;7186;48.800;9.216;2023-05-07T03:20:23;7.93;;;5.20;;
14205;SDS011;7186;48.800;9.216;2023-05-07T03:22:48;7.47;;;4.97;;
14205;SDS011;7186;48.800;9.216;2023-05-07T03:25:13;6.80;;;5.30;;
14205;SDS011;7186;48.800;9.216;2023-05-07T03:27:39;12.40;;;8.43;;
14205;SDS011;7186;48.800;9.216;2023-05-07T03:30:06;6.50;;;5.83;;
14205;SDS011;7186;48.800;9.216;2023-05-07T03:32:32;8.70;;;5.20;;
14205;SDS011;7186;48.800;9.216;2023-05-07T03:34:57;7.40;;;5.57;;
14205;SDS011;7186;48.800;9.216;2023-05-07T03:37:23;7.40;;;5.37;;
14205;SDS011;7186;48.800;9.216;2023-05-07T03:39:48;7.13;;;5.30;;
14205;SDS011;7186;48.800;9.216;2023-05-07T03:42:13;7.77;;;5.20;;
14205;SDS011;7186;48.800;9.216;2023-05-07T03:44:38;7.47;;;5.60;;
14205;SDS011;7186;48.800;9.216;2023-05-07T03:47:04;7.80;;;4.97;;
14205;SDS011;7186;48.800;9.216;2023-05-07T03:49:29;8.17;;;5.90;;
14205;SDS011;7186;48.800;9.216;2023-05-07T03:51:54;12.40;;;4.90;;
14205;SDS011;7186;48.800;9.216;2023-05-07T03:54:20;7.33;;;5.90;;
14205;SDS011;7186;48.800;9.216;2023-05-07T03:56:45;8.17;;;4.87;;
14205;SDS011;7186;48.800;9.216;2023-05-07T03:59:11;7.63;;;5.17;;
14205;SDS011;7186;48.800;9.216;2023-05-07T04:01:37;8.03;;;5.50;;
14205;SDS011;7186;48.800;9.216;2023-05-07T04:04:03;5.57;;;4.97;;
14205;SDS011;7186;48.800;9.216;2023-05-07T04:06:29;12.50;;;5.60;;
14205;SDS011;7186;48.800;9.216;2023-05-07T04:08:54;9.93;;;4.97;;
14205;SDS011;7186;48.800;9.216;2023-05-07T04:11:19;10.50;;;5.10;;
14205;SDS011;7186;48.800;9.216;2023-05-07T04:13:45;7.17;;;5.17;;
14205;SDS011;7186;48.800;9.216;2023-05-07T04:16:10;8.03;;;4.80;;
14205;SDS011;7186;48.800;9.216;2023-05-07T04:18:35;8.60;;;5.10;;
14205;SDS011;7186;48.800;9.216;2023-05-07T04:21:01;5.97;;;4.87;;
14205;SDS011;7186;48.800;9.216;2023-05-07T04:23:26;6.37;;;4.90;;
14205;SDS011;7186;48.800;9.216;2023-05-07T04:25:51;5.90;;;4.90;;
14205;SDS011;7186;48.800;9.216;2023-05-07T04:28:17;8.20;;;5.70;;
14205;SDS011;7186;48.800;9.216;2023-05-07T04:30:42;7.40;;;5.40;;
14205;SDS011;7186;48.800;9.216;2023-05-07T04:33:08;7.67;;;5.10;;
14205;SDS011;7186;48.800;9.216;2023-05-07T04:35:33;6.43;;;5.30;;
14205;SDS011;7186;48.800;9.216;2023-05-07T04:37:58;6.27;;;4.87;;
14205;SDS011;7186;48.800;9.216;2023-05-07T04:40:23;6.07;;;4.90;;
14205;SDS011;7186;48.800;9.216;2023-05-07T04:42:48;7.83;;;4.87;;
14205;SDS011;7186;48.800;9.216;2023-05-07T04:45:14;5.83;;;5.03;;
14205;SDS011;7186;48.800;9.216;2023-05-07T04:47:40;8.40;;;5.00;;
14205;SDS011;7186;48.800;9.216;2023-05-07T04:50:06;7.07;;;4.80;;
14205;SDS011;7186;48.800;9.216;2023-05-07T04:52:31;6.70;;;5.30;;
14205;SDS011;7186;48.800;9.216;2023-05-07T04:54:58;5.87;;;4.67;;
14205;SDS011;7186;48.800;9.216;2023-05-07T04:57:24;7.03;;;4.87;;
14205;SDS011;7186;48.800;9.216;2023-05-07T04:59:49;7.17;;;5.03;;
14205;SDS011;7186;48.800;9.216;2023-05-07T05:02:15;6.73;;;4.83;;
14205;SDS011;7186;48.800;9.216;2023-05-07T05:04:40;6.73;;;4.97;;
14205;SDS011;7186;48.800;9.216;2023-05-07T05:07:05;6.93;;;5.23;;
14205;SDS011;7186;48.800;9.216;2023-05-07T05:09:30;7.50;;;5.70;;
14205;SDS011;7186;48.800;9.216;2023-05-07T05:11:56;7.17;;;5.10;;
14205;SDS011;7186;48.800;9.216;2023-05-07T05:14:21;5.20;;;4.30;;
14205;SDS011;7186;48.800;9.216;2023-05-07T05:16:49;6.60;;;4.87;;
14205;SDS011;7186;48.800;9.216;2023-05-07T05:19:14;6.00;;;4.63;;
14205;SDS011;7186;48.800;9.216;2023-05-07T05:21:39;7.90;;;4.90;;
14205;SDS011;7186;48.800;9.216;2023-05-07T05:24:05;7.70;;;4.97;;
14205;SDS011;7186;48.800;9.216;2023-05-07T05:26:31;6.40;;;4.67;;
14205;SDS011;7186;48.800;9.216;2023-05-07T05:28:56;5.40;;;4.50;;
14205;SDS011;7186;48.800;9.216;2023-05-07T05:31:21;7.73;;;5.30;;
14205;SDS011;7186;48.800;9.216;2023-05-07T05:33:46;8.67;;;4.63;;
14205;SDS011;7186;48.800;9.216;2023-05-07T05:36:11;8.33;;;4.60;;
14205;SDS011;7186;48.800;9.216;2023-05-07T05:38:38;8.83;;;4.83;;
14205;SDS011;7186;48.800;9.216;2023-05-07T05:41:03;5.40;;;4.90;;
14205;SDS011;7186;48.800;9.216;2023-05-07T05:43:28;6.80;;;5.07;;
14205;SDS011;7186;48.800;9.216;2023-05-07T05:45:55;7.77;;;5.00;;
14205;SDS011;7186;48.800;9.216;2023-05-07T05:48:20;5.87;;;4.77;;
14205;SDS011;7186;48.800;9.216;2023-05-07T05:50:45;10.60;;;5.50;;
14205;SDS011;7186;48.800;9.216;2023-05-07T05:53:10;8.50;;;5.20;;
14205;SDS011;7186;48.800;9.216;2023-05-07T05:55:35;5.93;;;5.27;;
14205;SDS011;7186;48.800;9.216;2023-05-07T05:58:01;6.57;;;5.13;;
14205;SDS011;7186;48.800;9.216;2023-05-07T06:00:26;8.87;;;5.67;;
14205;SDS011;7186;48.800;9.216;2023-05-07T06:02:52;8.07;;;5.57;;
14205;SDS011;7186;48.800;9.216;2023-05-07T06:05:17;8.13;;;5.47;;
14205;SDS011;7186;48.800;9.216;2023-05-07T06:07:42;6.50;;;5.40;;
14205;SDS011;7186;48.800;9.216;2023-05-07T06:10:07;10.97;;;5.80;;
14205;SDS011;7186;48.800;9.216;2023-05-07T06:12:33;7.63;;;5.33;;
14205;SDS011;7186;48.800;9.216;2023-05-07T06:14:58;7.80;;;5.50;;
14205;SDS011;7186;48.800;9.216;2023-05-07T06:17:23;6.27;;;5.17;;
14205;SDS011;7186;48.800;9.216;2023-05-07T06:19:48;7.17;;;5.77;;
14205;SDS011;7186;48.800;9.216;2023-05-07T06:22:13;10.70;;;7.07;;
14205;SDS011;7186;48.800;9.216;2023-05-07T06:24:39;8.50;;;6.37;;
14205;SDS011;7186;48.800;9.216;2023-05-07T06:27:04;7.80;;;5.67;;
14205;SDS011;7186;48.800;9.216;2023-05-07T06:29:29;6.30;;;5.50;;
14205;SDS011;7186;48.800;9.216;2023-05-07T06:32:05;11.90;;;6.07;;
14205;SDS011;7186;48.800;9.216;2023-05-07T06:34:31;8.27;;;6.07;;
14205;SDS011;7186;48.800;9.216;2023-05-07T06:36:56;8.00;;;6.43;;
14205;SDS011;7186;48.800;9.216;2023-05-07T06:39:21;9.37;;;6.20;;
14205;SDS011;7186;48.800;9.216;2023-05-07T06:41:46;11.80;;;6.10;;
14205;SDS011;7186;48.800;9.216;2023-05-07T06:44:11;8.33;;;6.33;;
14205;SDS011;7186;48.800;9.216;2023-05-07T06:46:37;7.60;;;5.53;;
14205;SDS011;7186;48.800;9.216;2023-05-07T06:49:02;9.03;;;6.70;;
14205;SDS011;7186;48.800;9.216;2023-05-07T06:51:27;8.73;;;5.90;;
14205;SDS011;7186;48.800;9.216;2023-05-07T06:53:52;8.23;;;6.57;;
14205;SDS011;7186;48.800;9.216;2023-05-07T06:56:18;8.70;;;6.30;;
14205;SDS011;7186;48.800;9.216;2023-05-07T06:58:43;8.53;;;5.80;;
14205;SDS011;7186;48.800;9.216;2023-05-07T07:01:08;9.27;;;6.10;;
14205;SDS011;7186;48.800;9.216;2023-05-07T07:03:33;9.23;;;6.07;;
14205;SDS011;7186;48.800;9.216;2023-05-07T07:05:58;11.30;;;6.20;;
14205;SDS011;7186;48.800;9.216;2023-05-07T07:08:24;6.10;;;5.40;;
14205;SDS011;7186;48.800;9.216;2023-05-07T07:10:49;10.03;;;5.73;;
14205;SDS011;7186;48.800;9.216;2023-05-07T07:13:14;5.80;;;5.20;;
14205;SDS011;7186;48.800;9.216;2023-05-07T07:15:40;8.23;;;5.77;;
14205;SDS011;7186;48.800;9.216;2023-05-07T07:18:05;7.80;;;5.60;;
14205;SDS011;7186;48.800;9.216;2023-05-07T07:20:30;6.03;;;5.30;;
14205;SDS011;7186;48.800;9.216;2023-05-07T07:22:56;6.07;;;4.87;;
14205;SDS011;7186;48.800;9.216;2023-05-07T07:25:21;7.40;;;5.50;;
14205;SDS011;7186;48.800;9.216;2023-05-07T07:27:46;8.07;;;5.37;;
14205;SDS011;7186;48.800;9.216;2023-05-07T07:30:11;6.63;;;5.30;;
14205;SDS011;7186;48.800;9.216;2023-05-07T07:32:37;5.50;;;4.83;;
14205;SDS011;7186;48.800;9.216;2023-05-07T07:35:02;7.87;;;4.50;;
14205;SDS011;7186;48.800;9.216;2023-05-07T07:37:27;8.67;;;5.10;;
14205;SDS011;7186;48.800;9.216;2023-05-07T07:39:53;6.03;;;4.10;;
14205;SDS011;7186;48.800;9.216;2023-05-07T07:42:18;4.93;;;4.40;;
14205;SDS011;7186;48.800;9.216;2023-05-07T07:44:43;7.27;;;4.33;;
14205;SDS011;7186;48.800;9.216;2023-05-07T07:47:09;5.53;;;4.50;;
14205;SDS011;7186;48.800;9.216;2023-05-07T07:49:34;5.00;;;4.23;;
14205;SDS011;7186;48.800;9.216;2023-05-07T07:52:00;5.87;;;4.30;;
14205;SDS011;7186;48.800;9.216;2023-05-07T07:54:25;6.87;;;4.47;;
14205;SDS011;7186;48.800;9.216;2023-05-07T07:56:50;8.30;;;3.87;;
14205;SDS011;7186;48.800;9.216;2023-05-07T07:59:16;5.30;;;4.53;;
14205;SDS011;7186;48.800;9.216;2023-05-07T08:01:43;6.17;;;4.87;;
14205;SDS011;7186;48.800;9.216;2023-05-07T08:04:09;6.90;;;4.97;;
14205;SDS011;7186;48.800;9.216;2023-05-07T08:06:34;6.60;;;4.93;;
14205;SDS011;7186;48.800;9.216;2023-05-07T08:08:59;8.07;;;5.03;;
14205;SDS011;7186;48.800;9.216;2023-05-07T08:11:25;6.93;;;4.83;;
14205;SDS011;7186;48.800;9.216;2023-05-07T08:13:50;6.17;;;5.13;;
14205;SDS011;7186;48.800;9.216;2023-05-07T08:16:15;5.03;;;4.23;;
14205;SDS011;7186;48.800;9.216;2023-05-07T08:18:41;5.87;;;4.43;;
14205;SDS011;7186;48.800;9.216;2023-05-07T08:21:06;5.67;;;3.80;;
14205;SDS011;7186;48.800;9.216;2023-05-07T08:23:31;5.03;;;4.07;;
14205;SDS011;7186;48.800;9.216;2023-05-07T08:25:57;6.27;;;3.77;;
14205;SDS011;7186;48.800;9.216;2023-05-07T08:28:22;5.33;;;3.67;;
14205;SDS011;7186;48.800;9.216;2023-05-07T08:30:49;3.90;;;3.50;;
14205;SDS011;7186;48.800;9.216;2023-05-07T08:33:14;5.63;;;3.77;;
14205;SDS011;7186;48.800;9.216;2023-05-07T08:35:43;5.03;;;3.70;;
14205;SDS011;7186;48.800;9.216;2023-05-07T08:38:08;5.63;;;3.50;;
14205;SDS011;7186;48.800;9.216;2023-05-07T08:40:36;4.17;;;3.77;;
14205;SDS011;7186;48.800;9.216;2023-05-07T08:43:02;5.40;;;4.07;;
14205;SDS011;7186;48.800;9.216;2023-05-07T08:45:27;4.87;;;3.80;;
14205;SDS011;7186;48.800;9.216;2023-05-07T08:47:55;4.40;;;4.00;;
14205;SDS011;7186;48.800;9.216;2023-05-07T08:50:23;7.17;;;4.00;;
14205;SDS011;7186;48.800;9.216;2023-05-07T08:52:48;4.57;;;4.17;;
14205;SDS011;7186;48.800;9.216;2023-05-07T08:55:13;6.90;;;4.00;;
14205;SDS011;7186;48.800;9.216;2023-05-07T08:57:40;5.13;;;3.47;;
14205;SDS011;7186;48.800;9.216;2023-05-07T09:00:05;3.80;;;3.43;;
14205;SDS011;7186;48.800;9.216;2023-05-07T09:02:32;4.63;;;3.87;;
14205;SDS011;7186;48.800;9.216;2023-05-07T09:04:57;3.70;;;3.30;;
14205;SDS011;7186;48.800;9.216;2023-05-07T09:07:22;3.80;;;3.40;;
14205;SDS011;7186;48.800;9.216;2023-05-07T09:09:47;3.90;;;3.60;;
14205;SDS011;7186;48.800;9.216;2023-05-07T09:12:13;4.57;;;3.77;;
14205;SDS011;7186;48.800;9.216;2023-05-07T09:14:38;6.83;;;3.40;;
14205;SDS011;7186;48.800;9.216;2023-05-07T09:17:04;5.10;;;3.27;;
14205;SDS011;7186;48.800;9.216;2023-05-07T09:19:30;5.20;;;3.67;;
14205;SDS011;7186;48.800;9.216;2023-05-07T09:21:58;3.10;;;2.90;;
14205;SDS011;7186;48.800;9.216;2023-05-07T09:24:24;3.57;;;2.90;;
14205;SDS011;7186;48.800;9.216;2023-05-07T09:26:50;5.13;;;3.10;;
14205;SDS011;7186;48.800;9.216;2023-05-07T09:29:15;3.80;;;3.27;;
14205;SDS011;7186;48.800;9.216;2023-05-07T09:31:41;3.33;;;3.03;;
14205;SDS011;7186;48.800;9.216;2023-05-07T09:34:07;3.20;;;2.90;;
14205;SDS011;7186;48.800;9.216;2023-05-07T09:36:33;4.30;;;3.10;;
14205;SDS011;7186;48.800;9.216;2023-05-07T09:39:01;3.47;;;3.17;;
14205;SDS011;7186;48.800;9.216;2023-05-07T09:41:26;3.30;;;2.97;;
14205;SDS011;7186;48.800;9.216;2023-05-07T09:43:54;3.97;;;3.37;;
14205;SDS011;7186;48.800;9.216;2023-05-07T09:46:20;5.23;;;3.53;;
14205;SDS011;7186;48.800;9.216;2023-05-07T09:48:49;3.73;;;3.33;;
14205;SDS011;7186;48.800;9.216;2023-05-07T09:51:29;3.17;;;2.87;;
14205;SDS011;7186;48.800;9.216;2023-05-07T09:53:55;3.27;;;2.90;;
14205;SDS011;7186;48.800;9.216;2023-05-07T09:56:21;3.30;;;2.80;;
14205;SDS011;7186;48.800;9.216;2023-05-07T09:58:46;3.30;;;3.00;;
14205;SDS011;7186;48.800;9.216;2023-05-07T10:01:12;3.00;;;2.70;;
14205;SDS011;7186;48.800;9.216;2023-05-07T10:03:38;2.90;;;2.70;;
14205;SDS011;7186;48.800;9.216;2023-05-07T10:06:04;2.80;;;2.60;;
14205;SDS011;7186;48.800;9.216;2023-05-07T10:08:30;4.00;;;3.27;;
14205;SDS011;7186;48.800;9.216;2023-05-07T10:10:55;9.63;;;2.87;;
14205;SDS011;7186;48.800;9.216;2023-05-07T10:13:20;5.10;;;3.10;;
14205;SDS011;7186;48.800;9.216;2023-05-07T10:15:46;3.70;;;3.40;;
14205;SDS011;7186;48.800;9.216;2023-05-07T10:18:12;3.93;;;2.73;;
14205;SDS011;7186;48.800;9.216;2023-05-07T10:20:38;3.10;;;2.77;;
14205;SDS011;7186;48.800;9.216;2023-05-07T10:23:04;3.00;;;2.70;;
14205;SDS011;7186;48.800;9.216;2023-05-07T10:25:30;3.10;;;2.87;;
14205;SDS011;7186;48.800;9.216;2023-05-07T10:28:08;4.23;;;2.80;;
14205;SDS011;7186;48.800;9.216;2023-05-07T10:30:40;2.97;;;2.77;;
14205;SDS011;7186;48.800;9.216;2023-05-07T10:33:11;3.97;;;2.70;;
14205;SDS011;7186;48.800;9.216;2023-05-07T10:35:42;3.83;;;2.60;;
14205;SDS011;7186;48.800;9.216;2023-05-07T10:38:08;2.87;;;2.57;;
14205;SDS011;7186;48.800;9.216;2023-05-07T10:40:33;5.03;;;3.40;;
14205;SDS011;7186;48.800;9.216;2023-05-07T10:43:00;3.67;;;2.70;;
14205;SDS011;7186;48.800;9.216;2023-05-07T10:45:27;3.97;;;2.73;;
14205;SDS011;7186;48.800;9.216;2023-05-07T10:50:36;2.73;;;2.43;;
14205;SDS011;7186;48.800;9.216;2023-05-07T10:53:20;3.00;;;2.70;;
14205;SDS011;7186;48.800;9.216;2023-05-07T10:55:46;3.03;;;2.73;;
14205;SDS011;7186;48.800;9.216;2023-05-07T11:00:47;3.87;;;2.80;;
14205;SDS011;7186;48.800;9.216;2023-05-07T11:03:12;3.03;;;2.50;;
14205;SDS011;7186;48.800;9.216;2023-05-07T11:05:42;2.97;;;2.70;;
14205;SDS011;7186;48.800;9.216;2023-05-07T11:08:07;3.30;;;2.87;;
14205;SDS011;7186;48.800;9.216;2023-05-07T11:10:48;5.43;;;3.93;;
14205;SDS011;7186;48.800;9.216;2023-05-07T11:13:14;2.77;;;2.57;;
14205;SDS011;7186;48.800;9.216;2023-05-07T11:15:41;3.00;;;2.70;;
14205;SDS011;7186;48.800;9.216;2023-05-07T11:18:10;4.23;;;2.70;;
14205;SDS011;7186;48.800;9.216;2023-05-07T11:23:08;4.73;;;3.90;;
14205;SDS011;7186;48.800;9.216;2023-05-07T11:25:33;4.17;;;3.00;;
14205;SDS011;7186;48.800;9.216;2023-05-07T11:28:04;3.37;;;3.07;;
14205;SDS011;7186;48.800;9.216;2023-05-07T11:30:29;5.40;;;3.17;;
14205;SDS011;7186;48.800;9.216;2023-05-07T11:32:55;4.67;;;3.40;;
14205;SDS011;7186;48.800;9.216;2023-05-07T11:35:22;5.83;;;4.43;;
14205;SDS011;7186;48.800;9.216;2023-05-07T11:37:47;4.07;;;3.40;;
14205;SDS011;7186;48.800;9.216;2023-05-07T11:40:13;5.30;;;3.00;;
14205;SDS011;7186;48.800;9.216;2023-05-07T11:42:39;5.97;;;2.87;;
14205;SDS011;7186;48.800;9.216;2023-05-07T11:45:05;5.23;;;3.80;;
14205;SDS011;7186;48.800;9.216;2023-05-07T11:47:31;4.60;;;3.77;;
14205;SDS011;7186;48.800;9.216;2023-05-07T11:49:56;5.73;;;4.33;;
14205;SDS011;7186;48.800;9.216;2023-05-07T11:52:22;3.10;;;2.90;;
14205;SDS011;7186;48.800;9.216;2023-05-07T11:54:48;4.17;;;2.77;;
14205;SDS011;7186;48.800;9.216;2023-05-07T11:57:14;3.27;;;2.80;;
14205;SDS011;7186;48.800;9.216;2023-05-07T11:59:39;3.90;;;2.77;;
14205;SDS011;7186;48.800;9.216;2023-05-07T12:02:05;3.20;;;2.90;;
14205;SDS011;7186;48.800;9.216;2023-05-07T12:04:31;3.40;;;3.10;;
14205;SDS011;7186;48.800;9.216;2023-05-07T12:06:56;4.00;;;2.97;;
14205;SDS011;7186;48.800;9.216;2023-05-07T12:09:21;3.47;;;2.80;;
14205;SDS011;7186;48.800;9.216;2023-05-07T12:11:47;3.27;;;2.67;;
14205;SDS011;7186;48.800;9.216;2023-05-07T12:14:12;4.03;;;3.10;;
14205;SDS011;7186;48.800;9.216;2023-05-07T12:16:38;7.33;;;4.40;;
14205;SDS011;7186;48.800;9.216;2023-05-07T12:19:04;11.57;;;8.00;;
14205;SDS011;7186;48.800;9.216;2023-05-07T12:21:31;7.37;;;4.53;;
14205;SDS011;7186;48.800;9.216;2023-05-07T12:23:56;5.63;;;3.77;;
14205;SDS011;7186;48.800;9.216;2023-05-07T12:26:22;3.37;;;3.07;;
14205;SDS011;7186;48.800;9.216;2023-05-07T12:28:49;4.37;;;3.53;;
14205;SDS011;7186;48.800;9.216;2023-05-07T12:31:14;5.90;;;3.43;;
14205;SDS011;7186;48.800;9.216;2023-05-07T12:33:40;6.77;;;5.57;;
14205;SDS011;7186;48.800;9.216;2023-05-07T12:36:06;9.83;;;6.10;;
14205;SDS011;7186;48.800;9.216;2023-05-07T12:38:36;9.70;;;4.93;;
14205;SDS011;7186;48.800;9.216;2023-05-07T12:41:02;7.90;;;4.70;;
14205;SDS011;7186;48.800;9.216;2023-05-07T12:43:28;9.17;;;5.00;;
14205;SDS011;7186;48.800;9.216;2023-05-07T12:45:54;6.33;;;4.90;;
14205;SDS011;7186;48.800;9.216;2023-05-07T12:48:20;4.90;;;4.07;;
14205;SDS011;7186;48.800;9.216;2023-05-07T12:50:49;8.37;;;4.90;;
14205;SDS011;7186;48.800;9.216;2023-05-07T12:53:14;6.40;;;3.67;;
14205;SDS011;7186;48.800;9.216;2023-05-07T12:55:47;6.83;;;3.70;;
14205;SDS011;7186;48.800;9.216;2023-05-07T12:58:16;8.37;;;3.73;;
14205;SDS011;7186;48.800;9.216;2023-05-07T13:00:42;5.90;;;3.53;;
14205;SDS011;7186;48.800;9.216;2023-05-07T13:03:08;5.67;;;2.70;;
14205;SDS011;7186;48.800;9.216;2023-05-07T13:05:34;5.07;;;2.30;;
14205;SDS011;7186;48.800;9.216;2023-05-07T13:07:59;2.63;;;1.70;;
14205;SDS011;7186;48.800;9.216;2023-05-07T13:10:25;1.87;;;1.60;;
14205;SDS011;7186;48.800;9.216;2023-05-07T13:12:51;3.50;;;1.83;;
14205;SDS011;7186;48.800;9.216;2023-05-07T13:15:17;2.67;;;2.17;;
14205;SDS011;7186;48.800;9.216;2023-05-07T13:17:43;5.63;;;3.83;;
14205;SDS011;7186;48.800;9.216;2023-05-07T13:20:11;4.77;;;2.80;;
14205;SDS011;7186;48.800;9.216;2023-05-07T13:22:37;7.50;;;3.10;;
14205;SDS011;7186;48.800;9.216;2023-05-07T13:25:03;5.83;;;3.00;;
14205;SDS011;7186;48.800;9.216;2023-05-07T13:27:28;7.40;;;3.87;;
14205;SDS011;7186;48.800;9.216;2023-05-07T13:29:55;5.10;;;3.70;;
14205;SDS011;7186;48.800;9.216;2023-05-07T13:32:20;6.13;;;3.23;;
14205;SDS011;7186;48.800;9.216;2023-05-07T13:34:46;6.93;;;2.93;;
14205;SDS011;7186;48.800;9.216;2023-05-07T13:37:11;6.50;;;2.87;;
14205;SDS011;7186;48.800;9.216;2023-05-07T13:39:36;5.17;;;2.60;;
14205;SDS011;7186;48.800;9.216;2023-05-07T13:42:02;2.27;;;1.70;;
14205;SDS011;7186;48.800;9.216;2023-05-07T13:44:27;37.37;;;17.97;;
14205;SDS011;7186;48.800;9.216;2023-05-07T13:46:52;66.73;;;32.70;;
14205;SDS011;7186;48.800;9.216;2023-05-07T13:49:17;25.67;;;13.83;;
14205;SDS011;7186;48.800;9.216;2023-05-07T13:51:42;20.10;;;9.63;;
14205;SDS011;7186;48.800;9.216;2023-05-07T13:54:08;9.67;;;5.20;;
14205;SDS011;7186;48.800;9.216;2023-05-07T13:56:33;8.70;;;5.03;;
14205;SDS011;7186;48.800;9.216;2023-05-07T13:58:58;13.37;;;7.73;;
14205;SDS011;7186;48.800;9.216;2023-05-07T14:01:24;12.37;;;7.83;;
14205;SDS011;7186;48.800;9.216;2023-05-07T14:03:49;17.70;;;9.20;;
14205;SDS011;7186;48.800;9.216;2023-05-07T14:06:14;12.97;;;8.10;;
14205;SDS011;7186;48.800;9.216;2023-05-07T14:08:40;32.30;;;17.30;;
14205;SDS011;7186;48.800;9.216;2023-05-07T14:11:05;7.13;;;4.00;;
14205;SDS011;7186;48.800;9.216;2023-05-07T14:13:30;4.07;;;2.30;;
14205;SDS011;7186;48.800;9.216;2023-05-07T14:15:56;13.83;;;4.97;;
14205;SDS011;7186;48.800;9.216;2023-05-07T14:18:21;3.20;;;2.30;;
14205;SDS011;7186;48.800;9.216;2023-05-07T14:20:47;7.27;;;3.50;;
14205;SDS011;7186;48.800;9.216;2023-05-07T14:23:13;4.67;;;2.63;;
14205;SDS011;7186;48.800;9.216;2023-05-07T14:25:39;3.70;;;2.50;;
14205;SDS011;7186;48.800;9.216;2023-05-07T14:28:04;3.97;;;2.50;;
14205;SDS011;7186;48.800;9.216;2023-05-07T14:30:29;4.53;;;2.57;;
14205;SDS011;7186;48.800;9.216;2023-05-07T14:32:55;4.07;;;2.57;;
14205;SDS011;7186;48.800;9.216;2023-05-07T14:35:20;3.47;;;2.53;;
14205;SDS011;7186;48.800;9.216;2023-05-07T14:37:45;4.93;;;2.87;;
14205;SDS011;7186;48.800;9.216;2023-05-07T14:40:11;4.03;;;2.60;;
14205;SDS011;7186;48.800;9.216;2023-05-07T14:42:36;3.33;;;2.57;;
14205;SDS011;7186;48.800;9.216;2023-05-07T14:45:01;3.03;;;2.77;;
14205;SDS011;7186;48.800;9.216;2023-05-07T14:47:27;6.43;;;2.77;;
14205;SDS011;7186;48.800;9.216;2023-05-07T14:49:52;4.73;;;2.83;;
14205;SDS011;7186;48.800;9.216;2023-05-07T14:52:18;2.53;;;2.10;;
14205;SDS011;7186;48.800;9.216;2023-05-07T14:54:43;2.60;;;2.40;;
14205;SDS011;7186;48.800;9.216;2023-05-07T14:57:09;3.47;;;2.50;;
14205;SDS011;7186;48.800;9.216;2023-05-07T14:59:35;3.67;;;2.43;;